Darstellungsparameter: Aktuell verwendete Einstellungen:
Skalierung der Graphiken ... ?
xyx+y,   Skalierungsfaktor:      Skalierung: Modus: x, Faktor: 1
Darstellungszeitraum ... ?
Vom - - bis: - -   Zeitraum: 03.06.2009 - 04.06.2009
Min/Max/Avg-Anzeige ... ?
Zeige MMA aktuell
Zeige MMA Monat
Zeige MMA alles
Zeige --A aktuell
Zeige --A Monat
Zeige --A alles
Keine MMA-Anzeige
MMA:
Keine MMA-Graphiken
MMA-Basis: 03.06.2009 - 04.06.2009
Quicknavigation für Darstellung... ?
Tage:      1T, 2T, 3T, 5T -1T -2T -3T -5T +1T +2T +3T +5T
Wochen: 1W, 2W, 3W -1W -2W -3W +1W +2W +3W
Monate: 1M, 3M, 6M -1M -3M -6M +1M +3M +6M
Jahre:    1J, 3J, 5J, 10J -1J -3J -5J -10J +1J +3J +5J +10J
Nutze für die Darstellung ... ?
Originaldaten oder Mittelwerte auf ...
Stundenbasis Tagesbasis Wochenbasis
Monatsbasis Jahresbasis      Datenbasis: Original-Daten
Darstellen als:
Statistik (Auto) Statistik J:M      Darstellung:
Zur Graphik,    zurück zur Übersicht aller Sensoren.
 
Tabellarische Datenbersicht: ?
 
Sensor: Nr:Datum:Temp:Abs-Feuchte:Windchill:Wind:
Aussen-T/F 1 03-06-2009 00:03:45 19.7 C 5.77 g/m*3 19.7 C 0 km/h
2 03-06-2009 00:15:45 19.4 C 5.67 g/m*3 19.4 C 0 km/h
3 03-06-2009 00:27:45 19 C 5.38 g/m*3 19 C 0 km/h
4 03-06-2009 00:39:44 18.6 C 5.57 g/m*3 18.6 C 0 km/h
5 03-06-2009 00:51:45 18.2 C 5.44 g/m*3 18.2 C 0 km/h
6 03-06-2009 01:03:44 17.9 C 5.5 g/m*3 17.9 C 0 km/h
7 03-06-2009 01:15:44 17.7 C 5.43 g/m*3 17.7 C 0 km/h
8 03-06-2009 01:27:44 17.3 C 5.3 g/m*3 17.3 C 0 km/h
9 03-06-2009 01:39:44 17.1 C 5.24 g/m*3 17.1 C 0 km/h
10 03-06-2009 01:51:44 16.8 C 5.29 g/m*3 16.8 C 0 km/h
11 03-06-2009 02:03:44 16.4 C 5.16 g/m*3 16.4 C 0 km/h
12 03-06-2009 02:15:43 16 C 5.18 g/m*3 16 C 0 km/h
13 03-06-2009 02:27:43 15.7 C 5.22 g/m*3 15.7 C 0 km/h
14 03-06-2009 02:39:44 15.4 C 5.65 g/m*3 15.4 C 0 km/h
15 03-06-2009 02:52:45 15.1 C 5.81 g/m*3 15.1 C 0 km/h
16 03-06-2009 03:04:45 15 C 5.77 g/m*3 15 C 0 km/h
17 03-06-2009 03:16:45 14.6 C 5.88 g/m*3 14.6 C 0 km/h
18 03-06-2009 03:28:45 14.4 C 5.81 g/m*3 14.4 C 0 km/h
19 03-06-2009 03:40:45 14.2 C 5.74 g/m*3 14.2 C 0 km/h
20 03-06-2009 03:52:45 13.8 C 5.96 g/m*3 13.8 C 0 km/h
21 03-06-2009 04:04:45 13.7 C 6.04 g/m*3 13.7 C 0 km/h
22 03-06-2009 04:16:44 13.6 C 6 g/m*3 13.6 C 0 km/h
23 03-06-2009 04:28:44 13.5 C 5.97 g/m*3 13.5 C 0 km/h
24 03-06-2009 04:40:45 13.3 C 6.01 g/m*3 13.3 C 0 km/h
25 03-06-2009 04:52:44 13.1 C 5.93 g/m*3 13.1 C 0 km/h
Sensor: Nr:Datum:Temp:Abs-Feuchte:Windchill:Wind:
Aussen-T/F 26 03-06-2009 05:04:44 13 C 5.9 g/m*3 13 C 0 km/h
27 03-06-2009 05:16:44 13 C 5.9 g/m*3 13 C 0 km/h
28 03-06-2009 05:28:44 12.8 C 5.94 g/m*3 12.8 C 0 km/h
29 03-06-2009 05:40:44 12.7 C 6.01 g/m*3 12.7 C 0 km/h
30 03-06-2009 05:52:44 12.7 C 6.01 g/m*3 12.7 C 0 km/h
31 03-06-2009 06:04:43 12.9 C 6.2 g/m*3 12.9 C 0 km/h
32 03-06-2009 06:16:43 13 C 6.24 g/m*3 13 C 0 km/h
33 03-06-2009 06:28:43 13 C 6.24 g/m*3 13 C 0 km/h
34 03-06-2009 06:40:43 13 C 6.35 g/m*3 13 C 0 km/h
35 03-06-2009 06:52:43 12.9 C 6.54 g/m*3 12.9 C 0 km/h
36 03-06-2009 07:04:42 12.8 C 6.27 g/m*3 12.8 C 0 km/h
37 03-06-2009 07:16:43 12.7 C 6.35 g/m*3 12.7 C 0 km/h
38 03-06-2009 07:28:43 12.5 C 6.05 g/m*3 12.5 C 0 km/h
39 03-06-2009 07:40:43 12.8 C 6.16 g/m*3 12.8 C 0 km/h
40 03-06-2009 07:52:42 12.9 C 6.2 g/m*3 12.9 C 0 km/h
41 03-06-2009 08:04:43 12.8 C 5.94 g/m*3 12.8 C 0 km/h
42 03-06-2009 08:16:42 12.8 C 5.94 g/m*3 12.8 C 0 km/h
43 03-06-2009 08:28:42 13 C 5.9 g/m*3 13 C 0 km/h
44 03-06-2009 08:40:42 13 C 5.67 g/m*3 13 C 0 km/h
45 03-06-2009 08:52:42 13.1 C 5.48 g/m*3 13.1 C 0 km/h
46 03-06-2009 09:04:42 13.5 C 5.5 g/m*3 13.5 C 0 km/h
47 03-06-2009 09:16:41 13.9 C 5.39 g/m*3 13.9 C 0 km/h
48 03-06-2009 09:28:41 13.9 C 5.04 g/m*3 13.9 C 0 km/h
49 03-06-2009 09:40:41 14.6 C 5.13 g/m*3 14.6 C 0 km/h
50 03-06-2009 09:52:41 14.7 C 5.67 g/m*3 14.7 C 0 km/h
Sensor: Nr:Datum:Temp:Abs-Feuchte:Windchill:Wind:
Aussen-T/F 51 03-06-2009 10:04:41 14.2 C 5.62 g/m*3 14.2 C 0 km/h
52 03-06-2009 10:16:41 14.9 C 5.23 g/m*3 14.9 C 0 km/h
53 03-06-2009 10:28:41 14.6 C 5.63 g/m*3 14.6 C 0 km/h
54 03-06-2009 10:40:41 15 C 5.39 g/m*3 15 C 0 km/h
55 03-06-2009 10:52:41 15.4 C 5.26 g/m*3 15.4 C 0 km/h
56 03-06-2009 11:04:40 14.9 C 5.23 g/m*3 14.9 C 0 km/h
57 03-06-2009 11:16:41 15.2 C 5.19 g/m*3 15.2 C 0 km/h
58 03-06-2009 11:28:41 16 C 5.31 g/m*3 16 C 0 km/h
59 03-06-2009 11:40:40 16.8 C 5.43 g/m*3 16.8 C 0 km/h
60 03-06-2009 11:52:40 17 C 5.21 g/m*3 17 C 0 km/h
61 03-06-2009 12:04:40 16.7 C 4.97 g/m*3 16.7 C 0 km/h
62 03-06-2009 12:16:40 16.8 C 4.86 g/m*3 16.8 C 0 km/h
63 03-06-2009 12:28:40 17.7 C 4.98 g/m*3 17.7 C 0 km/h
64 03-06-2009 12:40:39 17.9 C 4.73 g/m*3 17.9 C 0 km/h
65 03-06-2009 12:52:40 18.8 C 4.83 g/m*3 18.8 C 0 km/h
66 03-06-2009 13:04:40 17.3 C 4.42 g/m*3 17.3 C 0 km/h
67 03-06-2009 13:16:39 18.2 C 4.66 g/m*3 18.2 C 0 km/h
68 03-06-2009 13:28:39 19.5 C 4.53 g/m*3 19.5 C 0 km/h
69 03-06-2009 13:40:39 18.4 C 4.09 g/m*3 18.4 C 0 km/h
70 03-06-2009 13:52:39 19.8 C 4.27 g/m*3 19.8 C 0 km/h
71 03-06-2009 14:04:39 19.3 C 4.15 g/m*3 19.3 C 0 km/h
72 03-06-2009 14:16:38 20.1 C 4.35 g/m*3 20.1 C 0 km/h
73 03-06-2009 14:28:38 19.3 C 4.31 g/m*3 19.3 C 0 km/h
74 03-06-2009 14:40:39 19.1 C 4.43 g/m*3 19.1 C 0 km/h
75 03-06-2009 14:52:38 19.7 C 4.92 g/m*3 19.7 C 0 km/h
Sensor: Nr:Datum:Temp:Abs-Feuchte:Windchill:Wind:
Aussen-T/F 76 03-06-2009 15:04:38 20.5 C 4.45 g/m*3 20.5 C 0 km/h
77 03-06-2009 15:16:39 20 C 4.67 g/m*3 20 C 0 km/h
78 03-06-2009 15:28:39 20.8 C 4.53 g/m*3 20.8 C 0 km/h
79 03-06-2009 15:40:38 20.4 C 4.6 g/m*3 20.4 C 0 km/h
80 03-06-2009 15:52:37 20.9 C 4.55 g/m*3 20.9 C 0 km/h
81 03-06-2009 16:04:38 20.1 C 4.52 g/m*3 20.1 C 0 km/h
82 03-06-2009 16:16:38 20.4 C 4.42 g/m*3 20.4 C 0 km/h
83 03-06-2009 16:28:38 20.2 C 4.55 g/m*3 20.2 C 0 km/h
84 03-06-2009 16:40:37 20.3 C 4.75 g/m*3 20.3 C 0 km/h
85 03-06-2009 16:52:38 20 C 4.32 g/m*3 20 C 0 km/h
86 03-06-2009 17:04:37 20.3 C 4.57 g/m*3 20.3 C 0 km/h
87 03-06-2009 17:16:37 20.6 C 4.65 g/m*3 20.6 C 0 km/h
88 03-06-2009 17:28:37 20.7 C 4.32 g/m*3 20.7 C 0 km/h
89 03-06-2009 17:40:36 19.4 C 4.34 g/m*3 19.4 C 0 km/h
90 03-06-2009 17:52:37 20.6 C 4.12 g/m*3 20.6 C 0 km/h
91 03-06-2009 18:04:36 19.2 C 3.79 g/m*3 19.2 C 0 km/h
92 03-06-2009 18:16:36 20.3 C 4.05 g/m*3 20.3 C 0 km/h
93 03-06-2009 18:28:36 19.3 C 3.98 g/m*3 19.3 C 0 km/h
94 03-06-2009 18:40:37 20 C 4.32 g/m*3 20 C 0 km/h
95 03-06-2009 18:52:36 19 C 4.24 g/m*3 19 C 0 km/h
96 03-06-2009 19:04:36 19.1 C 4.26 g/m*3 19.1 C 0 km/h
97 03-06-2009 19:16:36 18.8 C 4.51 g/m*3 18.8 C 0 km/h
98 03-06-2009 19:28:36 18.1 C 4.64 g/m*3 18.1 C 0 km/h
99 03-06-2009 19:40:36 18 C 4.61 g/m*3 18 C 0 km/h
100 03-06-2009 19:52:36 18 C 4.76 g/m*3 18 C 0 km/h
Sensor: Nr:Datum:Temp:Abs-Feuchte:Windchill:Wind:
Aussen-T/F 101 03-06-2009 20:04:36 17.7 C 4.83 g/m*3 17.7 C 0 km/h
102 03-06-2009 20:16:36 16.9 C 5.03 g/m*3 16.9 C 0 km/h
103 03-06-2009 20:28:36 16.6 C 5.09 g/m*3 16.6 C 0 km/h
104 03-06-2009 20:40:35 16.4 C 5.02 g/m*3 16.4 C 0 km/h
105 03-06-2009 20:52:34 16.5 C 4.91 g/m*3 16.5 C 0 km/h
106 03-06-2009 21:04:35 16.1 C 4.8 g/m*3 16.1 C 0 km/h
107 03-06-2009 21:16:35 16 C 4.77 g/m*3 16 C 0 km/h
108 03-06-2009 21:28:35 15.9 C 4.88 g/m*3 15.9 C 0 km/h
109 03-06-2009 21:40:34 15.5 C 4.63 g/m*3 15.5 C 0 km/h
110 03-06-2009 21:52:35 15.4 C 4.73 g/m*3 15.4 C 0 km/h
111 03-06-2009 22:05:35 15.3 C 4.7 g/m*3 15.3 C 0 km/h
112 03-06-2009 22:17:35 15.2 C 4.67 g/m*3 15.2 C 0 km/h
113 03-06-2009 22:29:35 15 C 4.62 g/m*3 15 C 0 km/h
114 03-06-2009 22:41:35 14.7 C 4.78 g/m*3 14.7 C 0 km/h
115 03-06-2009 22:53:35 14.9 C 4.84 g/m*3 14.9 C 0 km/h
116 03-06-2009 23:05:35 14.8 C 4.69 g/m*3 14.8 C 0 km/h
117 03-06-2009 23:17:35 14.6 C 4.88 g/m*3 14.6 C 0 km/h
118 03-06-2009 23:29:36 14.5 C 4.97 g/m*3 14.5 C 0 km/h
119 03-06-2009 23:41:36 14.2 C 5.01 g/m*3 14.2 C 0 km/h
120 03-06-2009 23:53:36 14 C 5.07 g/m*3 14 C 0 km/h
121 04-06-2009 00:05:36 13.7 C 5.21 g/m*3 13.7 C 0 km/h
122 04-06-2009 00:17:36 13.7 C 5.33 g/m*3 13.7 C 0 km/h
123 04-06-2009 00:29:36 13.4 C 5.23 g/m*3 13.4 C 0 km/h
124 04-06-2009 00:41:36 13.1 C 5.14 g/m*3 13.1 C 0 km/h
125 04-06-2009 00:53:36 13 C 5.22 g/m*3 13 C 0 km/h
Sensor: Nr:Datum:Temp:Abs-Feuchte:Windchill:Wind:
Aussen-T/F 126 04-06-2009 01:05:36 12.7 C 5.34 g/m*3 12.7 C 0 km/h
127 04-06-2009 01:17:36 12.6 C 5.42 g/m*3 12.6 C 0 km/h
128 04-06-2009 01:29:36 12.7 C 5.45 g/m*3 12.7 C 0 km/h
129 04-06-2009 01:41:36 12.6 C 5.42 g/m*3 12.6 C 0 km/h
130 04-06-2009 01:53:36 12.5 C 5.5 g/m*3 12.5 C 0 km/h
131 04-06-2009 02:05:36 12.5 C 4.95 g/m*3 12.5 C 0 km/h
132 04-06-2009 02:17:36 12.4 C 4.7 g/m*3 12.4 C 0 km/h
133 04-06-2009 02:29:36 12 C 4.48 g/m*3 12 C 0 km/h
134 04-06-2009 02:41:36 11.9 C 4.45 g/m*3 11.9 C 0 km/h
135 04-06-2009 02:53:36 11.7 C 4.18 g/m*3 11.7 C 0 km/h
136 04-06-2009 03:05:36 11.5 C 4.13 g/m*3 11.5 C 0 km/h
137 04-06-2009 03:17:37 11.2 C 3.95 g/m*3 11.2 C 0 km/h
138 04-06-2009 03:29:37 11 C 4 g/m*3 11 C 0 km/h
139 04-06-2009 03:41:37 10.8 C 4.15 g/m*3 10.8 C 0 km/h
140 04-06-2009 03:53:37 10.9 C 4.28 g/m*3 10.9 C 0 km/h
141 04-06-2009 04:05:37 10.8 C 4.15 g/m*3 10.8 C 0 km/h
142 04-06-2009 04:17:37 10.7 C 4.22 g/m*3 10.7 C 0 km/h
143 04-06-2009 04:29:37 10.6 C 4.29 g/m*3 10.6 C 0 km/h
144 04-06-2009 04:41:37 10.6 C 4.39 g/m*3 10.6 C 0 km/h
145 04-06-2009 04:53:37 10.7 C 4.62 g/m*3 10.7 C 0 km/h
146 04-06-2009 05:05:37 10.5 C 4.85 g/m*3 10.5 C 0 km/h
147 04-06-2009 05:17:37 10.5 C 4.95 g/m*3 10.5 C 0 km/h
148 04-06-2009 05:29:37 10.6 C 5.08 g/m*3 10.6 C 0 km/h
149 04-06-2009 05:41:37 10.7 C 5.11 g/m*3 10.7 C 0 km/h
150 04-06-2009 05:53:37 10.7 C 5.01 g/m*3 10.7 C 0 km/h
Sensor: Nr:Datum:Temp:Abs-Feuchte:Windchill:Wind:
Aussen-T/F 151 04-06-2009 06:05:37 10.7 C 5.11 g/m*3 10.7 C 0 km/h
152 04-06-2009 06:17:37 10.7 C 5.01 g/m*3 10.7 C 0 km/h
153 04-06-2009 06:29:37 10.5 C 4.75 g/m*3 10.5 C 0 km/h
154 04-06-2009 06:41:37 10.6 C 4.78 g/m*3 10.6 C 0 km/h
155 04-06-2009 06:53:35 10.7 C 4.91 g/m*3 10.7 C 0 km/h
156 04-06-2009 07:05:35 10.7 C 4.91 g/m*3 10.7 C 0 km/h
157 04-06-2009 07:17:35 11 C 4.8 g/m*3 11 C 0 km/h
158 04-06-2009 07:29:35 10.8 C 5.04 g/m*3 10.8 C 0 km/h
159 04-06-2009 07:41:35 10.8 C 5.34 g/m*3 10.8 C 0 km/h
160 04-06-2009 07:53:35 11 C 5.31 g/m*3 11 C 0 km/h
161 04-06-2009 08:05:34 11.6 C 5.4 g/m*3 11.6 C 0 km/h
162 04-06-2009 08:17:34 11.8 C 5.37 g/m*3 11.8 C 0 km/h
163 04-06-2009 08:29:34 11.9 C 5.3 g/m*3 11.9 C 0 km/h
164 04-06-2009 08:41:34 12.2 C 5.18 g/m*3 12.2 C 0 km/h
165 04-06-2009 08:53:34 12.5 C 5.17 g/m*3 12.5 C 0 km/h
166 04-06-2009 09:05:33 13 C 4.88 g/m*3 13 C 0 km/h
167 04-06-2009 09:17:34 12.8 C 4.59 g/m*3 12.8 C 0 km/h
168 04-06-2009 09:29:34 12.3 C 4.13 g/m*3 12.3 C 0 km/h
169 04-06-2009 09:41:34 12.7 C 4.23 g/m*3 12.7 C 0 km/h
170 04-06-2009 09:53:33 12.9 C 4.51 g/m*3 12.9 C 0 km/h
171 04-06-2009 10:05:34 13 C 4.2 g/m*3 13 C 0 km/h
172 04-06-2009 10:17:33 13.1 C 4.45 g/m*3 13.1 C 0 km/h
173 04-06-2009 10:29:33 14.1 C 4.49 g/m*3 14.1 C 0 km/h
174 04-06-2009 10:41:33 13.5 C 4.33 g/m*3 13.5 C 0 km/h
175 04-06-2009 10:53:33 13.2 C 4.36 g/m*3 13.2 C 0 km/h
Sensor: Nr:Datum:Temp:Abs-Feuchte:Windchill:Wind:
Aussen-T/F 176 04-06-2009 11:05:33 14 C 4.46 g/m*3 14 C 0 km/h
177 04-06-2009 11:17:32 14.7 C 4.53 g/m*3 14.7 C 0 km/h
178 04-06-2009 11:29:32 13.3 C 4.04 g/m*3 13.3 C 0 km/h
179 04-06-2009 11:41:32 13.1 C 3.99 g/m*3 13.1 C 0 km/h
180 04-06-2009 11:53:32 13.5 C 4.33 g/m*3 13.5 C 0 km/h
181 04-06-2009 12:05:32 14.7 C 4.53 g/m*3 14.7 C 0 km/h
182 04-06-2009 12:17:32 14.5 C 4.35 g/m*3 14.5 C 0 km/h
183 04-06-2009 12:29:32 14.6 C 4.25 g/m*3 14.6 C 0 km/h
184 04-06-2009 12:41:32 14.4 C 3.96 g/m*3 14.4 C 0 km/h
185 04-06-2009 12:53:32 14.7 C 4.28 g/m*3 14.7 C 0 km/h
186 04-06-2009 13:05:31 14.7 C 4.41 g/m*3 14.7 C 0 km/h
187 04-06-2009 13:17:32 15.7 C 4.01 g/m*3 15.7 C 0 km/h
188 04-06-2009 13:29:32 15.6 C 3.72 g/m*3 15.6 C 0 km/h
189 04-06-2009 13:41:31 14.9 C 3.95 g/m*3 14.9 C 0 km/h
190 04-06-2009 13:53:31 14.4 C 3.96 g/m*3 14.4 C 0 km/h
191 04-06-2009 14:05:31 15.1 C 4.13 g/m*3 15.1 C 0 km/h
192 04-06-2009 14:17:31 16.2 C 4.14 g/m*3 16.2 C 0 km/h
193 04-06-2009 14:29:31 15.3 C 3.79 g/m*3 15.3 C 0 km/h
194 04-06-2009 14:41:31 14.8 C 3.67 g/m*3 14.8 C 0 km/h
195 04-06-2009 14:53:30 15.8 C 3.9 g/m*3 15.8 C 0 km/h
196 04-06-2009 15:05:30 16.3 C 4.16 g/m*3 16.3 C 0 km/h
197 04-06-2009 15:17:30 17.5 C 3.88 g/m*3 17.5 C 0 km/h
198 04-06-2009 15:29:30 16.1 C 3.56 g/m*3 16.1 C 0 km/h
199 04-06-2009 15:41:30 15.9 C 3.79 g/m*3 15.9 C 0 km/h
200 04-06-2009 15:53:30 16.4 C 3.77 g/m*3 16.4 C 0 km/h
Sensor: Nr:Datum:Temp:Abs-Feuchte:Windchill:Wind:
Aussen-T/F 201 04-06-2009 16:05:30 16.3 C 3.75 g/m*3 16.3 C 0 km/h
202 04-06-2009 16:17:30 16.2 C 3.59 g/m*3 16.2 C 0 km/h
203 04-06-2009 16:29:30 17.2 C 3.66 g/m*3 17.2 C 0 km/h
204 04-06-2009 16:41:30 16.5 C 3.51 g/m*3 16.5 C 0 km/h
205 04-06-2009 16:53:29 16.2 C 3.72 g/m*3 16.2 C 0 km/h
206 04-06-2009 17:05:29 16.1 C 3.84 g/m*3 16.1 C 0 km/h
207 04-06-2009 17:17:29 16.4 C 3.91 g/m*3 16.4 C 0 km/h
208 04-06-2009 17:29:29 15.6 C 3.86 g/m*3 15.6 C 0 km/h
209 04-06-2009 17:41:29 15.6 C 3.99 g/m*3 15.6 C 0 km/h
210 04-06-2009 17:53:28 16.2 C 4.14 g/m*3 16.2 C 0 km/h
211 04-06-2009 18:05:29 16 C 4.09 g/m*3 16 C 0 km/h
212 04-06-2009 18:17:29 15.8 C 4.17 g/m*3 15.8 C 0 km/h
213 04-06-2009 18:29:29 16.1 C 4.25 g/m*3 16.1 C 0 km/h
214 04-06-2009 18:41:29 15.4 C 4.07 g/m*3 15.4 C 0 km/h
215 04-06-2009 18:53:28 15.7 C 4.28 g/m*3 15.7 C 0 km/h
216 04-06-2009 19:05:28 15.3 C 4.18 g/m*3 15.3 C 0 km/h
217 04-06-2009 19:17:28 15.4 C 4.2 g/m*3 15.4 C 0 km/h
218 04-06-2009 19:29:28 15.4 C 4.34 g/m*3 15.4 C 0 km/h
219 04-06-2009 19:41:28 14.7 C 4.41 g/m*3 14.7 C 0 km/h
220 04-06-2009 19:53:28 15.1 C 4.52 g/m*3 15.1 C 0 km/h
221 04-06-2009 20:05:28 14.9 C 4.59 g/m*3 14.9 C 0 km/h
222 04-06-2009 20:17:27 14.9 C 4.59 g/m*3 14.9 C 0 km/h
223 04-06-2009 20:29:27 14.7 C 4.66 g/m*3 14.7 C 0 km/h
224 04-06-2009 20:41:27 14.5 C 4.73 g/m*3 14.5 C 0 km/h
225 04-06-2009 20:53:27 14.1 C 4.61 g/m*3 14.1 C 0 km/h
Sensor: Nr:Datum:Temp:Abs-Feuchte:Windchill:Wind:
Aussen-T/F 226 04-06-2009 21:05:27 14 C 4.7 g/m*3 14 C 0 km/h
227 04-06-2009 21:17:27 13.8 C 4.77 g/m*3 13.8 C 0 km/h
228 04-06-2009 21:29:27 13.7 C 4.86 g/m*3 13.7 C 0 km/h
229 04-06-2009 21:41:27 13.5 C 4.91 g/m*3 13.5 C 0 km/h
230 04-06-2009 21:53:27 13.5 C 5.03 g/m*3 13.5 C 0 km/h
231 04-06-2009 22:06:22 13.3 C 4.97 g/m*3 13.3 C 0 km/h
232 04-06-2009 22:18:22 13.2 C 4.94 g/m*3 13.2 C 0 km/h
233 04-06-2009 22:30:22 13 C 4.99 g/m*3 13 C 0 km/h
234 04-06-2009 22:42:22 13 C 4.88 g/m*3 13 C 0 km/h
235 04-06-2009 22:54:22 12.9 C 4.96 g/m*3 12.9 C 0 km/h
236 04-06-2009 23:06:22 12.7 C 5.01 g/m*3 12.7 C 0 km/h
237 04-06-2009 23:18:22 12.4 C 4.92 g/m*3 12.4 C 0 km/h
238 04-06-2009 23:30:22 12.2 C 4.86 g/m*3 12.2 C 0 km/h
239 04-06-2009 23:42:22 12.1 C 4.93 g/m*3 12.1 C 0 km/h
240 04-06-2009 23:54:22 12 C 5.01 g/m*3 12 C 0 km/h

Legende:
   Min
   Max


Maximal/Minimal-Werte vom 03.06.2009 - 04.06.2009

Sensor Min Max Avg
Temp
(Aussen-T/F)
10.5 °C
04-06-2009  05:05:37
20.9 °C
03-06-2009  15:52:37
14.91 °C
Abs-Feuchte
(Aussen-T/F)
3.51 g/m*3
04-06-2009  16:41:30
6.54 g/m*3
03-06-2009  06:52:43
4.82 g/m*3
Windchill
(Aussen-T/F)
10.5 C
04-06-2009  05:05:37
20.9 C
03-06-2009  15:52:37
14.84 C

Die Daten stammen von einer Davis Vantage Pro 2 Wetter-Station und werden unter Linux mit der Software wview2wettercgi und aufbereitet. Alle Angaben erfolgen ohne Gewähr für ihre Vollständigkeit oder Richtigkeit.
Kontakt: Rainer Krienke krienke@uni-koblenz.de . Meine Webseiten an der Uni Koblenz oder privat.
Version: $Revision: 0.78 $